Time;durP1;ratioP1;P1;durP2;ratioP2;P2;SDS_P1;SDS_P2;PMS_P1;PMS_P2;Temp;Humidity;BMP_temperature;BMP_pressure;BME280_temperature;BME280_humidity;BME280_pressure;Samples;Min_cycle;Max_cycle;Signal;HPM_P1;HPM_P2
2022/10/01 00:02:00;;;;;;;4.87;3.87;;;11.60;99.90;;;;;;5015077;28;20227;-53
2022/10/01 00:04:27;;;;;;;6.00;4.30;;;11.60;99.90;;;;;;5016000;28;20207;-54
2022/10/01 00:06:58;;;;;;;5.07;4.20;;;11.60;99.90;;;;;;5018703;28;20673;-54
2022/10/01 00:09:25;;;;;;;5.93;3.97;;;11.60;99.90;;;;;;5015993;28;20200;-54
2022/10/01 00:11:52;;;;;;;4.83;4.07;;;11.50;99.90;;;;;;5014794;28;20669;-53
2022/10/01 00:14:19;;;;;;;5.37;4.20;;;11.60;99.90;;;;;;5011998;28;20203;-53
2022/10/01 00:16:46;;;;;;;7.50;3.97;;;11.70;99.90;;;;;;5011565;28;20208;-54
2022/10/01 00:19:16;;;;;;;4.23;3.80;;;11.60;99.90;;;;;;5016633;28;20960;-53
2022/10/01 00:21:43;;;;;;;5.83;4.23;;;11.60;99.90;;;;;;5013462;28;20581;-54
2022/10/01 00:24:11;;;;;;;4.07;3.67;;;11.60;99.90;;;;;;5021790;28;20660;-53
2022/10/01 00:26:40;;;;;;;5.30;4.33;;;11.70;99.90;;;;;;5017541;28;20199;-55
2022/10/01 00:29:12;;;;;;;4.73;4.20;;;11.70;99.90;;;;;;5008988;28;20211;-54
2022/10/01 00:31:38;;;;;;;5.27;4.07;;;11.60;99.90;;;;;;5027744;28;20708;-52
2022/10/01 00:34:06;;;;;;;4.83;3.40;;;11.60;99.90;;;;;;5011179;28;20208;-52
2022/10/01 00:36:33;;;;;;;6.37;4.20;;;11.60;99.90;;;;;;5013459;28;21503;-53
2022/10/01 00:39:00;;;;;;;4.40;3.90;;;11.60;99.90;;;;;;5017125;28;20677;-52
2022/10/01 00:41:30;;;;;;;6.73;4.40;;;11.60;99.90;;;;;;5012954;28;20788;-53
2022/10/01 00:44:22;;;;;;;4.33;3.53;;;11.60;99.90;;;;;;5019043;28;20563;-51
2022/10/01 00:46:51;;;;;;;7.27;3.90;;;11.60;99.90;;;;;;5030963;28;20207;-55
2022/10/01 00:49:23;;;;;;;4.80;3.87;;;11.50;99.90;;;;;;5011251;28;20216;-54
2022/10/01 00:51:54;;;;;;;5.17;4.20;;;11.60;99.90;;;;;;5013201;28;20731;-52
2022/10/01 00:54:30;;;;;;;4.47;3.90;;;11.50;99.90;;;;;;5012606;28;20200;-53
2022/10/01 00:56:58;;;;;;;5.93;4.47;;;11.50;99.90;;;;;;5015252;28;21498;-54
2022/10/01 00:59:26;;;;;;;7.07;4.43;;;11.60;99.90;;;;;;5024605;28;20724;-54
2022/10/01 01:01:53;;;;;;;5.57;4.50;;;11.60;99.90;;;;;;5014631;28;20222;-53
2022/10/01 01:04:20;;;;;;;4.23;3.83;;;11.50;99.90;;;;;;5012846;28;20559;-53
2022/10/01 01:06:54;;;;;;;5.57;4.17;;;11.50;99.90;;;;;;5015320;28;20330;-54
2022/10/01 01:09:26;;;;;;;5.47;4.27;;;11.50;99.90;;;;;;5013832;28;20193;-53
2022/10/01 01:12:13;;;;;;;5.70;4.53;;;11.50;99.90;;;;;;5017664;28;20582;-53
2022/10/01 01:14:57;;;;;;;4.93;3.17;;;11.50;99.90;;;;;;5030606;28;20204;-53
2022/10/01 01:17:40;;;;;;;5.23;3.37;;;11.40;99.90;;;;;;5013284;28;20214;-56
2022/10/01 01:20:08;;;;;;;5.37;3.87;;;11.40;99.90;;;;;;5012211;28;20224;-54
2022/10/01 01:22:41;;;;;;;3.47;3.17;;;11.40;99.90;;;;;;5011427;28;20738;-54
2022/10/01 01:25:18;;;;;;;3.47;3.17;;;11.40;99.90;;;;;;5013250;28;20272;-54
2022/10/01 01:27:59;;;;;;;4.93;3.30;;;11.40;99.90;;;;;;5014630;28;20203;-54
2022/10/01 01:30:26;;;;;;;3.43;3.00;;;11.40;99.90;;;;;;5012200;28;20203;-54
2022/10/01 01:33:23;;;;;;;3.90;3.03;;;11.40;99.90;;;;;;5014397;28;20195;-53
2022/10/01 01:35:54;;;;;;;3.40;3.10;;;11.40;99.90;;;;;;5015684;28;20219;-52
2022/10/01 01:38:30;;;;;;;4.93;3.30;;;11.40;99.90;;;;;;5016833;28;20550;-52
2022/10/01 01:41:00;;;;;;;4.33;2.97;;;11.40;99.90;;;;;;5018861;28;20215;-53
2022/10/01 01:43:32;;;;;;;2.47;2.27;;;11.40;99.90;;;;;;5022390;28;20278;-52
2022/10/01 01:46:03;;;;;;;3.00;2.63;;;11.40;99.90;;;;;;5023131;28;20196;-53
2022/10/01 01:48:31;;;;;;;2.50;2.03;;;11.50;99.90;;;;;;5015443;28;20456;-53
2022/10/01 01:51:11;;;;;;;4.03;2.47;;;11.50;99.90;;;;;;5018887;28;20695;-55
2022/10/01 01:53:38;;;;;;;2.90;2.47;;;11.50;99.90;;;;;;5019753;28;20190;-54
2022/10/01 01:56:06;;;;;;;2.90;2.60;;;11.50;99.90;;;;;;5017228;28;20639;-53
2022/10/01 01:58:34;;;;;;;2.40;2.20;;;11.50;99.90;;;;;;5019518;28;20192;-55
2022/10/01 02:01:02;;;;;;;2.57;2.23;;;11.50;99.90;;;;;;5020628;28;20706;-55
2022/10/01 02:03:31;;;;;;;2.93;2.37;;;11.50;99.90;;;;;;5019772;28;20193;-53
2022/10/01 02:06:27;;;;;;;3.07;2.10;;;11.50;99.90;;;;;;5025550;28;20559;-54
2022/10/01 02:09:30;;;;;;;2.10;1.90;;;11.40;99.90;;;;;;5018935;28;20566;-53
2022/10/01 02:12:19;;;;;;;2.67;2.40;;;11.40;99.90;;;;;;5022220;28;20204;-54
2022/10/01 02:15:03;;;;;;;2.27;2.07;;;11.40;99.90;;;;;;5017444;28;20218;-55
2022/10/01 02:18:00;;;;;;;2.37;1.80;;;11.40;99.90;;;;;;5015611;28;20584;-55
2022/10/01 02:20:34;;;;;;;3.40;1.80;;;11.40;99.90;;;;;;5007706;28;20626;-54
2022/10/01 02:23:08;;;;;;;2.93;1.90;;;11.40;99.90;;;;;;5015537;28;20613;-57
2022/10/01 02:25:47;;;;;;;2.37;1.60;;;11.40;99.90;;;;;;5014561;28;20240;-52
2022/10/01 02:28:17;;;;;;;3.00;1.73;;;11.40;99.90;;;;;;5015565;28;20204;-52
2022/10/01 02:30:45;;;;;;;2.07;1.73;;;11.40;99.90;;;;;;5017168;28;20670;-53
2022/10/01 02:33:16;;;;;;;2.03;1.60;;;11.40;99.90;;;;;;5018879;28;20214;-53
2022/10/01 02:35:45;;;;;;;2.30;1.80;;;11.40;99.90;;;;;;5013247;28;20345;-53
2022/10/01 02:38:15;;;;;;;1.80;1.53;;;11.50;99.90;;;;;;5019145;28;20602;-52
2022/10/01 02:40:45;;;;;;;2.10;1.60;;;11.50;99.90;;;;;;5017055;28;20219;-54
2022/10/01 02:43:20;;;;;;;1.77;1.57;;;11.50;99.90;;;;;;5018887;28;20254;-54
2022/10/01 02:45:54;;;;;;;2.80;1.50;;;11.50;99.90;;;;;;5020985;28;20565;-53
2022/10/01 02:48:21;;;;;;;3.10;1.23;;;11.50;99.90;;;;;;5020048;28;20646;-54
2022/10/01 02:50:52;;;;;;;2.20;1.50;;;11.50;99.90;;;;;;5013844;28;20236;-53
2022/10/01 02:53:23;;;;;;;1.40;1.30;;;11.50;99.90;;;;;;5020376;28;20290;-53
2022/10/01 02:55:52;;;;;;;1.57;1.23;;;11.50;99.90;;;;;;5017772;28;20196;-53
2022/10/01 02:58:19;;;;;;;3.07;1.30;;;11.50;99.90;;;;;;5017212;28;20211;-53
2022/10/01 03:00:46;;;;;;;2.47;1.40;;;11.50;99.90;;;;;;5014928;28;20220;-53
2022/10/01 03:03:13;;;;;;;2.17;1.13;;;11.60;99.90;;;;;;5020400;28;20544;-53
2022/10/01 03:05:40;;;;;;;1.40;1.30;;;11.50;99.90;;;;;;5016997;28;20200;-54
2022/10/01 03:08:07;;;;;;;5.37;1.20;;;11.50;99.90;;;;;;5013117;28;20207;-53
2022/10/01 03:10:34;;;;;;;1.27;0.80;;;11.60;99.90;;;;;;5017746;28;20203;-54
2022/10/01 03:13:00;;;;;;;1.53;0.80;;;11.70;99.90;;;;;;5020597;28;20717;-53
2022/10/01 03:15:28;;;;;;;1.00;0.90;;;11.70;99.90;;;;;;5020044;28;20206;-53
2022/10/01 03:17:54;;;;;;;1.23;0.97;;;11.70;99.90;;;;;;5017589;28;20290;-54
2022/10/01 03:20:22;;;;;;;0.87;0.83;;;11.70;99.90;;;;;;5019378;28;20219;-54
2022/10/01 03:22:49;;;;;;;1.03;0.93;;;11.70;99.90;;;;;;5019795;28;20204;-53
2022/10/01 03:25:16;;;;;;;2.07;1.07;;;11.70;99.90;;;;;;5019144;28;20286;-55
2022/10/01 03:27:44;;;;;;;2.50;1.10;;;11.80;99.90;;;;;;5033252;28;20290;-53
2022/10/01 03:30:12;;;;;;;1.00;0.87;;;11.80;99.90;;;;;;5018286;28;20208;-53
2022/10/01 03:32:39;;;;;;;1.10;1.00;;;11.90;99.90;;;;;;5017866;28;20257;-53
2022/10/01 03:35:06;;;;;;;1.10;1.00;;;11.90;99.90;;;;;;5021699;28;20204;-51
2022/10/01 03:37:33;;;;;;;1.27;0.97;;;11.90;99.90;;;;;;5021140;28;20204;-54
2022/10/01 03:40:00;;;;;;;1.53;1.10;;;11.90;99.90;;;;;;5019458;28;20226;-54
2022/10/01 03:42:27;;;;;;;0.80;0.77;;;11.90;99.90;;;;;;5014704;28;20314;-53
2022/10/01 03:44:54;;;;;;;1.40;1.10;;;11.90;99.90;;;;;;5022508;28;20205;-53
2022/10/01 03:47:23;;;;;;;1.20;0.90;;;11.90;99.90;;;;;;5020187;28;20719;-53
2022/10/01 03:49:50;;;;;;;1.17;0.93;;;11.90;99.90;;;;;;5017044;28;20200;-54
2022/10/01 03:52:19;;;;;;;1.57;1.17;;;12.00;99.90;;;;;;5021242;28;20720;-54
2022/10/01 03:54:46;;;;;;;1.27;1.17;;;12.00;99.90;;;;;;5015601;28;20206;-54
2022/10/01 03:57:12;;;;;;;1.10;0.80;;;12.00;99.90;;;;;;5019515;28;20208;-54
2022/10/01 03:59:39;;;;;;;1.40;1.00;;;12.00;99.90;;;;;;5018988;28;20294;-53
2022/10/01 04:02:07;;;;;;;1.10;0.80;;;12.00;99.90;;;;;;5018415;28;20228;-53
2022/10/01 04:04:34;;;;;;;1.63;0.77;;;12.10;99.90;;;;;;5018697;28;20558;-54
2022/10/01 04:07:00;;;;;;;1.07;0.90;;;12.10;99.90;;;;;;5020255;28;20207;-55
2022/10/01 04:09:27;;;;;;;1.37;1.00;;;12.10;99.90;;;;;;5020495;28;20216;-54
2022/10/01 04:11:54;;;;;;;0.93;0.60;;;12.10;99.90;;;;;;5021410;28;20644;-54
2022/10/01 04:14:21;;;;;;;1.60;1.30;;;12.10;99.90;;;;;;5015338;28;20739;-53
2022/10/01 04:16:51;;;;;;;1.73;0.90;;;12.20;99.90;;;;;;5016960;28;20655;-54
2022/10/01 04:19:19;;;;;;;1.00;0.80;;;12.20;99.90;;;;;;5016120;28;20223;-53
2022/10/01 04:21:45;;;;;;;1.53;1.17;;;12.20;99.90;;;;;;5016526;28;20208;-53
2022/10/01 04:24:12;;;;;;;0.83;0.83;;;12.30;99.90;;;;;;5016937;28;20205;-53
2022/10/01 04:26:39;;;;;;;1.10;1.00;;;12.30;99.90;;;;;;5013765;28;20202;-53
2022/10/01 04:29:06;;;;;;;1.57;1.00;;;12.30;99.90;;;;;;5013500;28;20201;-53
2022/10/01 04:31:33;;;;;;;1.43;1.13;;;12.30;99.90;;;;;;5013238;28;20210;-52
2022/10/01 04:34:02;;;;;;;1.57;1.10;;;12.40;99.90;;;;;;5016988;28;20204;-54
2022/10/01 04:36:28;;;;;;;1.20;1.10;;;12.40;99.90;;;;;;5015852;28;20214;-53
2022/10/01 04:38:55;;;;;;;1.40;1.03;;;12.40;99.90;;;;;;5015424;28;20208;-53
2022/10/01 04:41:31;;;;;;;1.40;1.30;;;12.40;99.90;;;;;;5015656;28;20238;-53
2022/10/01 04:43:59;;;;;;;1.77;1.47;;;12.40;99.90;;;;;;5018081;28;20201;-54
2022/10/01 04:46:28;;;;;;;1.50;1.40;;;12.50;99.90;;;;;;5016275;28;20200;-53
2022/10/01 04:48:56;;;;;;;1.53;1.43;;;12.50;99.90;;;;;;5017851;28;20202;-53
2022/10/01 04:51:23;;;;;;;1.80;1.70;;;12.50;99.90;;;;;;5030579;28;20267;-53
2022/10/01 04:53:50;;;;;;;1.70;1.60;;;12.60;99.90;;;;;;5013579;28;20601;-53
2022/10/01 04:56:17;;;;;;;1.90;1.70;;;12.60;99.90;;;;;;5012902;28;20247;-53
2022/10/01 04:58:43;;;;;;;5.07;2.10;;;12.60;99.90;;;;;;5013201;28;20269;-55
2022/10/01 05:01:10;;;;;;;1.93;1.83;;;12.60;99.90;;;;;;5011139;28;20227;-53
2022/10/01 05:03:37;;;;;;;2.23;2.03;;;12.60;99.90;;;;;;5009172;28;20256;-53
2022/10/01 05:06:04;;;;;;;4.70;2.50;;;12.70;99.90;;;;;;5014532;28;20588;-54
2022/10/01 05:08:31;;;;;;;2.10;1.90;;;12.70;99.90;;;;;;5012159;28;20201;-52
2022/10/01 05:10:59;;;;;;;2.90;2.70;;;12.70;99.90;;;;;;5016263;28;20201;-53
2022/10/01 05:13:28;;;;;;;2.60;2.20;;;12.70;99.90;;;;;;5014236;28;20735;-53
2022/10/01 05:15:56;;;;;;;3.40;3.17;;;12.70;99.90;;;;;;5013221;28;20201;-53
2022/10/01 05:18:23;;;;;;;4.47;3.10;;;12.80;99.90;;;;;;5014323;28;20200;-55
2022/10/01 05:20:50;;;;;;;3.63;3.00;;;12.80;99.90;;;;;;5015742;28;20208;-54
2022/10/01 05:23:16;;;;;;;2.73;2.53;;;12.80;99.90;;;;;;5013864;28;20200;-54
2022/10/01 05:25:45;;;;;;;3.67;3.37;;;12.90;99.90;;;;;;5012396;28;20204;-54
2022/10/01 05:28:13;;;;;;;4.70;3.27;;;12.90;99.90;;;;;;5016307;28;20207;-53
2022/10/01 05:30:45;;;;;;;4.30;3.90;;;12.90;99.90;;;;;;5014613;28;20275;-52
2022/10/01 05:33:12;;;;;;;4.97;3.60;;;12.90;99.90;;;;;;5023784;28;20215;-54
2022/10/01 05:35:40;;;;;;;4.47;3.67;;;12.90;99.90;;;;;;5021237;28;20308;-52
2022/10/01 05:38:06;;;;;;;4.40;4.00;;;13.00;99.90;;;;;;5021647;28;20215;-53
2022/10/01 05:40:33;;;;;;;4.33;4.00;;;13.00;99.90;;;;;;5023649;28;20220;-53
2022/10/01 05:43:01;;;;;;;5.23;4.73;;;13.00;99.90;;;;;;5017496;28;20204;-53
2022/10/01 05:45:29;;;;;;;4.73;4.33;;;13.00;99.90;;;;;;5019266;28;20256;-55
2022/10/01 05:47:57;;;;;;;4.97;3.53;;;13.00;99.90;;;;;;5019279;28;20207;-52
2022/10/01 05:50:24;;;;;;;4.90;4.40;;;13.10;99.90;;;;;;5015464;28;20204;-54
2022/10/01 05:52:54;;;;;;;5.17;4.30;;;13.10;99.90;;;;;;5020519;28;20658;-53
2022/10/01 05:55:21;;;;;;;5.37;4.43;;;13.10;99.90;;;;;;5030832;28;20193;-53
2022/10/01 05:57:59;;;;;;;5.80;5.03;;;13.10;99.90;;;;;;5017466;28;20233;-54
2022/10/01 06:00:27;;;;;;;5.63;5.07;;;13.10;99.90;;;;;;5009181;28;20661;-53
2022/10/01 06:02:59;;;;;;;5.53;5.03;;;13.10;99.90;;;;;;5019061;28;20271;-52
2022/10/01 06:05:27;;;;;;;5.60;4.97;;;13.20;99.90;;;;;;5014945;28;20789;-53
2022/10/01 06:07:54;;;;;;;5.37;4.70;;;13.20;99.90;;;;;;5020250;28;20204;-53
2022/10/01 06:10:22;;;;;;;7.43;5.50;;;13.20;99.90;;;;;;5014430;28;20495;-53
2022/10/01 06:12:49;;;;;;;5.80;5.30;;;13.20;99.90;;;;;;5014864;28;20651;-53
2022/10/01 06:15:17;;;;;;;5.87;5.37;;;13.30;99.90;;;;;;5016890;28;20675;-53
2022/10/01 06:17:44;;;;;;;7.33;6.40;;;13.30;99.90;;;;;;5011312;28;20216;-53
2022/10/01 06:20:12;;;;;;;7.90;6.80;;;13.30;99.90;;;;;;5014832;28;20247;-53
2022/10/01 06:22:41;;;;;;;8.63;6.87;;;13.40;99.90;;;;;;5017173;28;20221;-53
2022/10/01 06:25:12;;;;;;;7.53;6.87;;;13.40;99.90;;;;;;5012656;28;20553;-53
2022/10/01 06:27:39;;;;;;;11.53;7.33;;;13.40;99.90;;;;;;5012783;28;20330;-52
2022/10/01 06:30:07;;;;;;;8.27;7.23;;;13.50;99.90;;;;;;5015142;28;20664;-53
2022/10/01 06:32:33;;;;;;;7.77;7.07;;;13.40;99.90;;;;;;5015641;28;20198;-52
2022/10/01 06:35:01;;;;;;;11.40;7.37;;;13.40;99.90;;;;;;5008744;28;20246;-52
2022/10/01 06:37:28;;;;;;;8.73;7.67;;;13.40;99.90;;;;;;5011899;28;20215;-52
2022/10/01 06:39:55;;;;;;;8.60;7.80;;;13.50;99.90;;;;;;4654344;28;9999806;-52
2022/10/01 06:42:22;;;;;;;8.33;7.33;;;13.50;99.90;;;;;;5007268;28;20587;-52
2022/10/01 06:44:49;;;;;;;8.00;7.20;;;13.50;99.90;;;;;;5008916;28;20206;-52
2022/10/01 06:47:15;;;;;;;9.23;7.10;;;13.50;99.90;;;;;;5013753;28;20229;-52
2022/10/01 06:49:42;;;;;;;8.13;7.33;;;13.60;99.90;;;;;;5011687;28;20213;-53
2022/10/01 06:55:00;;;;;;;8.43;7.43;;;13.60;99.90;;;;;;5013566;28;20296;-52
2022/10/01 06:57:27;;;;;;;11.90;7.40;;;13.60;99.90;;;;;;5018895;28;20226;-53
2022/10/01 06:59:54;;;;;;;9.00;7.53;;;13.70;99.90;;;;;;5020523;28;20281;-52
2022/10/01 07:02:29;;;;;;;8.90;7.53;;;13.60;99.90;;;;;;5014367;28;20235;-52
2022/10/01 07:04:59;;;;;;;9.83;7.47;;;13.70;99.90;;;;;;5014249;28;20294;-52
2022/10/01 07:07:34;;;;;;;10.60;7.30;;;13.70;99.90;;;;;;5015828;28;20215;-52
2022/10/01 07:10:03;;;;;;;8.07;7.23;;;13.70;99.90;;;;;;5013600;28;20200;-52
2022/10/01 07:12:30;;;;;;;11.10;7.07;;;13.80;99.90;;;;;;5013794;28;20205;-54
2022/10/01 07:14:57;;;;;;;7.87;7.07;;;13.80;99.90;;;;;;5011502;28;20557;-52
2022/10/01 07:17:23;;;;;;;7.13;6.23;;;13.80;99.90;;;;;;5018852;28;20202;-53
2022/10/01 07:19:50;;;;;;;8.93;7.17;;;14.00;99.90;;;;;;5018959;28;20199;-52
2022/10/01 07:22:24;;;;;;;8.83;7.27;;;14.10;99.90;;;;;;5012285;28;20226;-54
2022/10/01 07:24:51;;;;;;;11.07;8.20;;;14.10;99.90;;;;;;5013002;28;20206;-53
2022/10/01 07:27:18;;;;;;;8.80;7.97;;;14.30;99.90;;;;;;5016863;28;20295;-53
2022/10/01 07:29:45;;;;;;;8.87;7.97;;;14.30;99.90;;;;;;5012961;28;20199;-53
2022/10/01 07:32:12;;;;;;;9.03;7.83;;;14.20;99.90;;;;;;5011692;28;20216;-52
2022/10/01 07:34:39;;;;;;;8.63;7.73;;;14.10;99.90;;;;;;5019258;28;20201;-51
2022/10/01 07:37:06;;;;;;;8.67;7.10;;;14.10;99.90;;;;;;5011615;28;20211;-51
2022/10/01 07:39:33;;;;;;;12.70;7.10;;;14.10;99.90;;;;;;5013499;28;20268;-52
2022/10/01 07:42:00;;;;;;;8.83;7.23;;;14.10;99.90;;;;;;5012389;28;20388;-51
2022/10/01 07:44:28;;;;;;;10.13;6.83;;;14.10;99.90;;;;;;5028505;28;20535;-52
2022/10/01 07:46:55;;;;;;;10.13;7.13;;;14.10;99.90;;;;;;5011915;28;20198;-52
2022/10/01 07:49:24;;;;;;;12.10;6.43;;;14.10;99.90;;;;;;5008747;28;20224;-55
2022/10/01 07:51:52;;;;;;;9.63;7.07;;;14.10;99.90;;;;;;5018400;28;20724;-53
2022/10/01 07:54:20;;;;;;;8.37;5.83;;;14.10;99.90;;;;;;5015248;28;20216;-53
2022/10/01 07:56:50;;;;;;;8.57;5.90;;;14.10;99.90;;;;;;5006614;28;20565;-52
2022/10/01 07:59:17;;;;;;;7.13;4.93;;;14.00;99.90;;;;;;5009937;28;20206;-52
2022/10/01 08:01:50;;;;;;;5.40;4.90;;;14.00;99.90;;;;;;5010802;28;20221;-52
2022/10/01 08:07:07;;;;;;;5.50;5.00;;;14.00;99.90;;;;;;5015337;28;20768;-53
2022/10/01 08:09:34;;;;;;;8.77;4.40;;;14.00;99.90;;;;;;5011369;28;20228;-54
2022/10/01 08:12:04;;;;;;;7.07;4.67;;;14.00;99.90;;;;;;5014532;28;20312;-53
2022/10/01 08:14:31;;;;;;;8.13;3.77;;;14.00;99.90;;;;;;5017167;28;20628;-52
2022/10/01 08:16:58;;;;;;;5.57;3.87;;;14.00;99.90;;;;;;5014724;28;20644;-53
2022/10/01 08:19:25;;;;;;;4.47;3.60;;;13.90;99.90;;;;;;5015080;28;20196;-53
2022/10/01 08:21:52;;;;;;;5.80;3.30;;;13.90;99.90;;;;;;5015874;28;20210;-52
2022/10/01 08:24:19;;;;;;;3.80;2.87;;;13.80;99.90;;;;;;5014176;28;20233;-52
2022/10/01 08:26:52;;;;;;;4.73;2.90;;;13.80;99.90;;;;;;5013849;28;20938;-52
2022/10/01 08:29:19;;;;;;;2.93;2.50;;;13.80;99.90;;;;;;5011619;28;20218;-53
2022/10/01 08:31:46;;;;;;;5.60;2.70;;;13.80;99.90;;;;;;5015821;28;20195;-54
2022/10/01 08:34:13;;;;;;;3.83;2.53;;;13.80;99.90;;;;;;5014356;28;20208;-53
2022/10/01 08:36:40;;;;;;;2.73;2.37;;;13.80;99.90;;;;;;5012523;28;20206;-52
2022/10/01 08:39:07;;;;;;;5.43;2.90;;;13.80;99.90;;;;;;5011116;28;20200;-53
2022/10/01 08:41:52;;;;;;;6.03;3.00;;;13.90;99.90;;;;;;5013309;28;20216;-53
2022/10/01 08:44:31;;;;;;;6.00;3.30;;;13.90;99.90;;;;;;5007039;28;20214;-53
2022/10/01 08:47:04;;;;;;;5.33;3.03;;;14.10;99.90;;;;;;5011842;28;20300;-53
2022/10/01 08:49:43;;;;;;;4.03;3.50;;;14.50;99.90;;;;;;5015440;28;21196;-52
2022/10/01 08:52:21;;;;;;;5.90;4.03;;;15.10;99.90;;;;;;5014895;28;20245;-53
2022/10/01 08:55:11;;;;;;;5.40;4.30;;;15.20;99.90;;;;;;5012898;28;20213;-53
2022/10/01 08:57:42;;;;;;;9.90;4.73;;;15.30;99.90;;;;;;5012892;28;20568;-52
2022/10/01 09:00:12;;;;;;;8.27;5.90;;;15.40;99.90;;;;;;5014675;28;20260;-52
2022/10/01 09:02:42;;;;;;;7.83;5.33;;;15.40;99.90;;;;;;5015190;28;20264;-52
2022/10/01 09:05:27;;;;;;;11.77;6.67;;;15.40;99.90;;;;;;5013451;28;20287;-52
2022/10/01 09:08:08;;;;;;;8.67;6.57;;;15.60;99.90;;;;;;5014881;28;21162;-53
2022/10/01 09:10:47;;;;;;;9.90;6.90;;;15.60;99.90;;;;;;5017600;28;20263;-55
2022/10/01 09:13:19;;;;;;;9.87;5.93;;;15.60;99.90;;;;;;5011619;28;20202;-54
2022/10/01 09:15:56;;;;;;;8.73;5.20;;;15.60;99.90;;;;;;5011054;28;20670;-54
2022/10/01 09:18:32;;;;;;;9.93;5.80;;;15.50;99.90;;;;;;5016887;28;20217;-55
2022/10/01 09:20:59;;;;;;;8.00;5.23;;;15.50;99.90;;;;;;5018225;28;20205;-53
2022/10/01 09:23:30;;;;;;;7.80;3.97;;;15.50;99.90;;;;;;5012986;28;20246;-53
2022/10/01 09:25:58;;;;;;;6.87;3.63;;;15.50;99.90;;;;;;5008492;28;20658;-52
2022/10/01 09:28:29;;;;;;;5.47;3.63;;;15.60;99.90;;;;;;5016890;28;20198;-52
2022/10/01 09:31:05;;;;;;;8.87;3.30;;;15.60;99.90;;;;;;5019143;28;20274;-52
2022/10/01 09:33:36;;;;;;;4.77;2.97;;;15.80;99.90;;;;;;5010647;28;20787;-54
2022/10/01 09:36:15;;;;;;;9.23;3.00;;;15.80;99.90;;;;;;5008791;28;20312;-53
2022/10/01 09:38:47;;;;;;;4.10;2.27;;;15.80;99.90;;;;;;5012566;28;21175;-54
2022/10/01 09:41:14;;;;;;;8.37;2.60;;;16.00;99.90;;;;;;5010396;28;20202;-53
2022/10/01 09:43:43;;;;;;;6.30;1.70;;;16.20;99.90;;;;;;5017275;28;20541;-53
2022/10/01 09:46:15;;;;;;;6.47;1.80;;;16.20;99.90;;;;;;5016601;28;20210;-53
2022/10/01 09:48:52;;;;;;;8.10;1.80;;;16.40;99.90;;;;;;5009565;28;20197;-52
2022/10/01 09:51:26;;;;;;;9.13;2.23;;;16.50;99.90;;;;;;5007378;28;20237;-53
2022/10/01 09:54:20;;;;;;;2.97;1.23;;;16.30;99.90;;;;;;5010932;28;20557;-52
2022/10/01 09:57:21;;;;;;;6.07;1.30;;;16.10;99.90;;;;;;5015139;28;20204;-52
2022/10/01 09:59:56;;;;;;;8.43;1.73;;;16.00;99.90;;;;;;5015365;28;20205;-53
2022/10/01 10:02:36;;;;;;;7.07;1.73;;;16.10;99.90;;;;;;5019217;28;20412;-52
2022/10/01 10:05:28;;;;;;;7.40;1.27;;;16.30;99.90;;;;;;5018515;28;20210;-53
2022/10/01 10:08:01;;;;;;;8.37;1.40;;;16.30;99.90;;;;;;5020758;28;20198;-53
2022/10/01 10:10:34;;;;;;;10.97;1.90;;;16.40;99.90;;;;;;5015471;28;20196;-53
2022/10/01 10:13:17;;;;;;;7.17;1.37;;;16.40;99.90;;;;;;5038212;28;20667;-52
2022/10/01 10:15:58;;;;;;;2.77;1.00;;;16.50;99.90;;;;;;5019355;28;20549;-53
2022/10/01 10:18:33;;;;;;;4.97;1.20;;;16.70;99.90;;;;;;5016224;28;20202;-53
2022/10/01 10:21:16;;;;;;;3.90;1.20;;;16.90;99.90;;;;;;5025104;28;20202;-54
2022/10/01 10:23:51;;;;;;;6.53;1.67;;;17.10;99.90;;;;;;5034250;28;20582;-53
2022/10/01 10:26:38;;;;;;;7.87;1.57;;;17.20;99.90;;;;;;5023775;28;20225;-53
2022/10/01 10:29:24;;;;;;;7.00;1.63;;;17.50;99.90;;;;;;5021825;28;20550;-53
2022/10/01 10:31:52;;;;;;;7.70;1.73;;;17.50;99.90;;;;;;5040821;28;20205;-54
2022/10/01 10:34:37;;;;;;;7.93;1.67;;;17.60;99.90;;;;;;5024892;28;20212;-54
2022/10/01 10:37:12;;;;;;;6.67;2.07;;;17.40;99.90;;;;;;5027183;28;20196;-54
2022/10/01 10:39:43;;;;;;;7.40;1.40;;;17.20;99.90;;;;;;5028158;28;20207;-53
2022/10/01 10:42:21;;;;;;;7.60;1.93;;;17.10;99.90;;;;;;5015642;28;20227;-51
2022/10/01 10:44:52;;;;;;;10.57;2.90;;;17.10;99.90;;;;;;5022285;28;20199;-51
2022/10/01 10:47:20;;;;;;;10.43;3.13;;;17.10;99.90;;;;;;5016207;28;20288;-53
2022/10/01 10:49:52;;;;;;;10.73;1.80;;;17.30;99.90;;;;;;5027907;28;20209;-54
2022/10/01 10:52:32;;;;;;;9.47;2.30;;;17.30;99.90;;;;;;5024240;28;20240;-53
2022/10/01 10:55:17;;;;;;;7.07;1.20;;;17.30;99.90;;;;;;5020606;28;20606;-52
2022/10/01 10:57:45;;;;;;;7.50;1.57;;;17.30;99.90;;;;;;5015880;28;20203;-52
2022/10/01 11:00:22;;;;;;;6.20;1.80;;;17.30;99.90;;;;;;5018941;28;20212;-52
2022/10/01 11:02:55;;;;;;;6.00;1.40;;;17.40;99.90;;;;;;5012671;28;20239;-53
2022/10/01 11:05:30;;;;;;;8.07;1.33;;;17.20;1.00;;;;;;5016020;28;20201;-53
2022/10/01 11:08:03;;;;;;;9.83;1.57;;;17.00;1.00;;;;;;5014699;28;20234;-54
2022/10/01 11:10:55;;;;;;;8.47;1.63;;;17.20;1.00;;;;;;5021847;28;20204;-53
2022/10/01 11:13:34;;;;;;;6.40;1.47;;;17.50;99.90;;;;;;5020087;28;20205;-53
2022/10/01 11:16:25;;;;;;;7.67;1.53;;;17.70;1.00;;;;;;5014352;28;20204;-53
2022/10/01 11:19:18;;;;;;;9.20;1.60;;;17.70;1.00;;;;;;5016561;28;20254;-52
2022/10/01 11:22:04;;;;;;;15.03;2.37;;;17.70;95.10;;;;;;5014182;28;20603;-52
2022/10/01 11:24:40;;;;;;;6.73;1.80;;;17.70;1.00;;;;;;5011966;28;20198;-53
2022/10/01 11:27:28;;;;;;;6.80;1.63;;;17.80;1.00;;;;;;5015526;28;20200;-52
2022/10/01 11:30:20;;;;;;;7.00;1.47;;;18.00;1.00;;;;;;5013009;28;20201;-53
2022/10/01 11:32:52;;;;;;;7.60;1.40;;;18.00;99.90;;;;;;5011548;28;20549;-53
2022/10/01 11:35:41;;;;;;;4.67;0.90;;;17.90;99.90;;;;;;5013011;28;20210;-53
2022/10/01 11:38:16;;;;;;;7.00;1.20;;;17.70;1.00;;;;;;5009979;28;20213;-53
2022/10/01 11:41:23;;;;;;;9.47;1.53;;;17.70;1.00;;;;;;5009095;28;20227;-53
2022/10/01 11:44:25;;;;;;;8.73;1.67;;;17.50;1.00;;;;;;5011762;28;20247;-53
2022/10/01 11:46:57;;;;;;;8.70;1.53;;;17.10;1.00;;;;;;5008863;28;20212;-53
2022/10/01 11:49:33;;;;;;;10.07;2.00;;;16.80;99.90;;;;;;5012582;28;20215;-52
2022/10/01 11:52:26;;;;;;;6.13;1.43;;;16.70;1.00;;;;;;5013858;28;21178;-53
2022/10/01 12:01:23;;;;;;;6.10;1.47;;;16.50;1.00;;;;;;5016655;28;20230;-52
2022/10/01 12:03:53;;;;;;;14.07;2.03;;;17.20;1.00;;;;;;5016762;28;20748;-53
2022/10/01 12:06:25;;;;;;;11.27;1.43;;;17.60;1.00;;;;;;5013497;28;20195;-53
2022/10/01 12:09:11;;;;;;;7.13;1.57;;;18.00;1.00;;;;;;5012701;28;20729;-52
2022/10/01 12:11:55;;;;;;;5.80;1.70;;;17.90;99.90;;;;;;5021672;28;20282;-53
2022/10/01 12:14:34;;;;;;;8.10;1.93;;;17.80;1.00;;;;;;5005670;28;20224;-53
2022/10/01 12:17:27;;;;;;;6.90;1.53;;;17.70;99.90;;;;;;5009020;28;20212;-52
2022/10/01 12:19:58;;;;;;;13.00;1.90;;;17.30;99.90;;;;;;5007412;28;20345;-53
2022/10/01 12:22:30;;;;;;;7.63;1.70;;;17.40;1.00;;;;;;5007876;28;20239;-53
2022/10/01 12:24:56;;;;;;;6.27;1.77;;;17.60;99.90;;;;;;5006534;28;22113;-53
2022/10/01 12:27:48;;;;;;;8.67;1.40;;;17.80;1.00;;;;;;5012328;28;20211;-53
2022/10/01 12:30:22;;;;;;;9.13;1.93;;;17.90;1.00;;;;;;5008726;28;20646;-54
2022/10/01 12:33:33;;;;;;;5.23;2.10;;;18.60;99.90;;;;;;5010773;28;20204;-53
2022/10/01 12:36:22;;;;;;;10.03;1.60;;;18.90;1.00;;;;;;5012962;28;20228;-52
2022/10/01 12:39:14;;;;;;;5.37;1.50;;;19.00;99.90;;;;;;5013236;28;20568;-52
2022/10/01 12:42:14;;;;;;;6.60;1.97;;;19.50;1.00;;;;;;5022256;28;20212;-55
2022/10/01 12:45:09;;;;;;;5.40;1.43;;;19.10;1.00;;;;;;5012138;28;20794;-53
2022/10/01 12:47:50;;;;;;;8.90;1.77;;;19.20;1.00;;;;;;5014159;28;20283;-52
2022/10/01 12:50:38;;;;;;;5.77;1.00;;;18.90;1.00;;;;;;5022030;28;20200;-53
2022/10/01 12:53:17;;;;;;;8.20;1.73;;;18.40;1.00;;;;;;5039218;28;20210;-53
2022/10/01 12:56:09;;;;;;;4.40;1.50;;;18.60;1.00;;;;;;5028228;28;20683;-53
2022/10/01 12:59:10;;;;;;;4.67;1.07;;;18.80;1.00;;;;;;5016286;28;20201;-53
2022/10/01 13:01:43;;;;;;;9.67;1.57;;;18.50;1.00;;;;;;5023795;28;20219;-52
2022/10/01 13:04:44;;;;;;;5.20;1.03;;;18.50;1.00;;;;;;5028294;28;20223;-53
2022/10/01 13:07:27;;;;;;;3.47;1.00;;;18.50;1.00;;;;;;5031865;28;20692;-52
2022/10/01 13:10:02;;;;;;;3.77;1.20;;;18.20;99.90;;;;;;5021900;28;20201;-52
2022/10/01 13:12:50;;;;;;;6.30;1.30;;;17.90;1.00;;;;;;5022683;28;20294;-52
2022/10/01 13:15:23;;;;;;;7.40;1.63;;;17.60;1.00;;;;;;5031619;28;20221;-52
2022/10/01 13:17:58;;;;;;;7.40;1.80;;;17.50;1.00;;;;;;5030400;28;20212;-52
2022/10/01 13:20:39;;;;;;;2.97;1.23;;;17.50;1.00;;;;;;5018131;28;20208;-52
2022/10/01 13:23:56;;;;;;;7.20;1.47;;;17.50;1.00;;;;;;5020033;28;20306;-53
2022/10/01 13:26:49;;;;;;;10.10;1.50;;;17.20;1.00;;;;;;5020438;28;20569;-52
2022/10/01 13:29:34;;;;;;;4.40;1.20;;;17.20;1.00;;;;;;5020279;28;20215;-52
2022/10/01 13:32:03;;;;;;;5.67;1.27;;;17.10;1.00;;;;;;5020044;28;20220;-52